Time;durP1;ratioP1;P1;durP2;ratioP2;P2;SDS_P1;SDS_P2;PMS_P1;PMS_P2;Temp;Humidity;BMP_temperature;BMP_pressure;BME280_temperature;BME280_humidity;BME280_pressure;Samples;Min_cycle;Max_cycle;Signal;HPM_P1;HPM_P2
2023/01/18 00:00:04;;;;;;;1.85;0.82;;;;;;;14.38;55.61;93412.72;5002008;28;20357;-73
2023/01/18 00:02:32;;;;;;;0.68;0.68;;;;;;;14.35;55.57;93456.44;5006536;28;20207;-66
2023/01/18 00:04:59;;;;;;;0.95;0.77;;;;;;;14.49;54.99;93370.16;5007153;28;20204;-68
2023/01/18 00:07:26;;;;;;;5.65;2.33;;;;;;;14.42;55.53;93352.84;5006732;28;20589;-69
2023/01/18 00:09:52;;;;;;;2.47;1.00;;;;;;;14.39;55.20;93346.19;5003026;28;20280;-72
2023/01/18 00:12:19;;;;;;;2.08;0.80;;;;;;;14.36;55.02;93369.41;5006263;28;20203;-70
2023/01/18 00:14:46;;;;;;;2.75;1.42;;;;;;;14.33;55.00;93379.88;5000365;28;22464;-68
2023/01/18 00:17:13;;;;;;;4.35;1.48;;;;;;;14.22;55.40;93382.41;5003990;28;20260;-67
2023/01/18 00:19:41;;;;;;;0.63;0.60;;;;;;;14.31;55.04;93356.19;5004022;28;20260;-68
2023/01/18 00:22:08;;;;;;;3.08;0.70;;;;;;;14.43;54.61;93377.47;5004116;28;20242;-73
2023/01/18 00:24:35;;;;;;;2.58;0.73;;;;;;;14.51;54.45;93395.59;5004197;28;20265;-70
2023/01/18 00:27:01;;;;;;;4.13;1.05;;;;;;;14.42;54.57;93332.38;5003776;28;20222;-70
2023/01/18 00:29:30;;;;;;;3.13;0.98;;;;;;;14.42;55.32;93370.72;5006197;28;20586;-72
2023/01/18 00:31:57;;;;;;;1.38;0.90;;;;;;;14.41;54.97;93333.31;5006887;28;20249;-72
2023/01/18 00:34:27;;;;;;;4.13;0.70;;;;;;;14.48;54.96;93365.16;5003162;28;20214;-70
2023/01/18 00:36:55;;;;;;;0.88;0.73;;;;;;;14.40;55.14;93365.69;5004713;28;20623;-68
2023/01/18 00:39:22;;;;;;;2.85;0.85;;;;;;;14.37;54.89;93350.59;5004719;28;20226;-70
2023/01/18 00:44:29;;;;;;;1.77;0.95;;;;;;;14.41;54.99;93358.88;5004154;28;20787;-67
2023/01/18 00:46:56;;;;;;;2.50;1.05;;;;;;;14.38;55.12;93341.19;5003355;28;20195;-66
2023/01/18 00:49:23;;;;;;;0.70;0.70;;;;;;;14.28;55.71;93361.53;5004176;28;20259;-69
2023/01/18 00:51:50;;;;;;;1.27;0.63;;;;;;;14.29;55.13;93356.31;5004265;28;20211;-69
2023/01/18 00:54:19;;;;;;;3.63;0.68;;;;;;;14.26;55.55;93355.72;5004414;28;20203;-66
2023/01/18 00:56:46;;;;;;;8.50;1.10;;;;;;;14.31;55.75;93333.19;5004111;28;20231;-69
2023/01/18 00:59:12;;;;;;;1.08;0.98;;;;;;;14.46;54.80;93346.56;5005210;28;20960;-70
2023/01/18 01:01:39;;;;;;;7.63;1.88;;;;;;;14.45;55.03;93337.28;5003842;28;20207;-69
2023/01/18 01:06:58;;;;;;;0.50;0.50;;;;;;;14.51;54.50;93332.53;4963445;28;20209;-68
2023/01/18 01:09:29;;;;;;;0.77;0.77;;;;;;;14.51;55.05;93336.81;5002471;28;20203;-70
2023/01/18 01:28:27;;;;;;;2.25;1.05;;;;;;;14.37;55.59;93352.34;5005220;28;20288;-67
2023/01/18 01:30:57;;;;;;;4.40;0.80;;;;;;;14.41;55.69;93318.81;5003079;28;20339;-69
2023/01/18 01:33:24;;;;;;;0.98;0.80;;;;;;;14.43;55.47;93374.91;4999343;28;20289;-70
2023/01/18 01:35:55;;;;;;;3.78;1.50;;;;;;;14.52;55.21;93369.13;5000850;28;20223;-72
2023/01/18 01:38:22;;;;;;;0.77;0.68;;;;;;;14.50;55.29;93345.41;4999147;28;20206;-68
2023/01/18 01:40:58;;;;;;;0.65;0.55;;;;;;;14.60;54.94;93352.25;5003559;28;20588;-71
2023/01/18 01:43:38;;;;;;;1.42;0.57;;;;;;;14.64;54.73;93340.88;5003971;28;20218;-71
2023/01/18 01:46:23;;;;;;;2.58;0.90;;;;;;;14.60;54.50;93328.44;5005574;28;20227;-72
2023/01/18 01:49:02;;;;;;;2.45;1.08;;;;;;;14.67;54.52;93357.72;5002684;28;20221;-70
2023/01/18 01:51:29;;;;;;;3.03;0.98;;;;;;;14.70;54.26;93361.78;4996832;28;20215;-69
2023/01/18 01:53:59;;;;;;;2.88;0.82;;;;;;;14.59;54.15;93350.66;5002259;28;20293;-72
2023/01/18 01:56:29;;;;;;;1.13;0.60;;;;;;;14.63;54.35;93358.88;5002802;28;20245;-67
2023/01/18 01:59:00;;;;;;;13.70;1.08;;;;;;;14.66;53.97;93358.63;5004412;28;20210;-74
2023/01/18 02:01:28;;;;;;;0.85;0.85;;;;;;;14.81;53.59;93380.50;4999502;28;20393;-73
2023/01/18 02:03:57;;;;;;;0.70;0.70;;;;;;;14.86;53.48;93357.91;5002239;28;20203;-68
2023/01/18 02:06:31;;;;;;;1.42;0.73;;;;;;;14.76;53.49;93367.25;5002777;28;20207;-71
2023/01/18 02:08:59;;;;;;;1.58;0.80;;;;;;;14.72;54.08;93350.50;5000263;28;20387;-69
2023/01/18 02:11:28;;;;;;;2.50;0.75;;;;;;;14.72;53.78;93350.50;4996765;28;20203;-70
2023/01/18 02:13:58;;;;;;;6.82;1.30;;;;;;;14.57;54.61;93367.03;5002697;28;20207;-66
2023/01/18 02:16:37;;;;;;;2.72;0.93;;;;;;;14.57;54.75;93313.34;4999311;28;20233;-69
2023/01/18 02:19:17;;;;;;;4.43;1.27;;;;;;;14.64;54.50;93334.94;5000043;28;20271;-70
2023/01/18 02:21:46;;;;;;;6.65;1.52;;;;;;;14.67;54.33;93347.47;5002050;28;20294;-71
2023/01/18 02:24:47;;;;;;;4.75;1.10;;;;;;;14.63;54.47;93341.78;5004773;28;20241;-70
2023/01/18 02:27:22;;;;;;;2.53;1.30;;;;;;;14.64;54.59;93332.38;5003637;28;20774;-72
2023/01/18 02:30:06;;;;;;;5.05;0.82;;;;;;;14.59;54.92;93354.94;5007593;28;20694;-68
2023/01/18 02:32:46;;;;;;;2.78;1.10;;;;;;;14.57;55.23;93336.34;5005646;28;20230;-71
2023/01/18 02:35:25;;;;;;;2.33;0.93;;;;;;;14.44;55.10;93361.19;5007926;28;20234;-70
2023/01/18 02:38:02;;;;;;;1.52;1.05;;;;;;;14.50;54.81;93340.31;5007761;28;20199;-70
2023/01/18 02:40:38;;;;;;;2.78;1.17;;;;;;;14.53;55.02;93348.56;5006020;28;20226;-67
2023/01/18 02:48:46;;;;;;;0.93;0.90;;;;;;;14.40;55.71;93334.22;5005438;28;20320;-67
2023/01/18 02:51:13;;;;;;;4.05;0.93;;;;;;;14.41;55.39;93329.03;5006762;28;20265;-67
2023/01/18 02:53:42;;;;;;;3.05;1.25;;;;;;;14.37;55.77;93371.03;5007650;28;20211;-69
2023/01/18 02:56:13;;;;;;;1.25;1.15;;;;;;;14.39;55.17;93365.81;5009946;28;21301;-70
2023/01/18 02:58:46;;;;;;;5.32;1.20;;;;;;;14.51;54.87;93352.16;5007442;28;20240;-70
2023/01/18 03:01:21;;;;;;;1.65;0.90;;;;;;;14.64;54.36;93380.94;5007897;28;20268;-70
2023/01/18 03:03:50;;;;;;;6.38;1.17;;;;;;;14.60;54.83;93379.56;5004369;28;20310;-68
2023/01/18 03:06:20;;;;;;;2.92;1.30;;;;;;;14.58;54.71;93369.47;5006439;28;20225;-66
2023/01/18 03:08:49;;;;;;;5.25;1.38;;;;;;;14.55;54.76;93354.38;5007643;28;20207;-69
2023/01/18 03:11:20;;;;;;;7.07;1.85;;;;;;;14.49;55.23;93338.66;5006406;28;20211;-69
2023/01/18 03:14:01;;;;;;;2.58;1.48;;;;;;;14.40;55.49;93362.31;5005116;28;20210;-68
2023/01/18 03:16:40;;;;;;;2.33;1.13;;;;;;;14.35;55.02;93372.09;5008889;28;20280;-68
2023/01/18 03:21:59;;;;;;;3.05;1.30;;;;;;;14.43;54.47;93354.47;5005947;28;20242;-69
2023/01/18 03:24:29;;;;;;;3.15;1.25;;;;;;;14.49;55.13;93374.44;5007231;28;20211;-71
2023/01/18 03:35:25;;;;;;;2.78;1.30;;;;;;;14.47;54.64;93345.63;5008449;28;20256;-69
2023/01/18 03:37:56;;;;;;;1.15;0.95;;;;;;;14.45;55.25;93342.38;5004335;28;20223;-69
2023/01/18 03:40:26;;;;;;;4.35;1.50;;;;;;;14.32;55.47;93349.34;5004814;28;20223;-70
2023/01/18 03:43:00;;;;;;;4.88;1.40;;;;;;;14.29;55.58;93338.41;5003204;28;20562;-70
2023/01/18 03:45:30;;;;;;;3.33;1.23;;;;;;;14.32;55.13;93357.00;5005519;28;20210;-67
2023/01/18 03:48:00;;;;;;;2.38;1.10;;;;;;;14.26;55.36;93346.31;5006204;28;20203;-71
2023/01/18 03:50:33;;;;;;;4.82;1.20;;;;;;;14.36;55.37;93355.81;5005351;28;20207;-68
2023/01/18 03:53:06;;;;;;;4.85;0.80;;;;;;;14.33;55.27;93333.88;5006748;28;20215;-68
2023/01/18 03:55:41;;;;;;;5.88;2.15;;;;;;;14.39;54.74;93348.72;5006258;28;20680;-67
2023/01/18 03:58:11;;;;;;;1.80;1.10;;;;;;;14.42;54.28;93311.94;5007002;28;20230;-73
2023/01/18 04:00:38;;;;;;;11.77;1.35;;;;;;;14.46;53.54;93292.91;5004854;28;20203;-70
2023/01/18 04:03:07;;;;;;;7.65;1.17;;;;;;;14.56;53.92;93306.63;5007111;28;20292;-67
2023/01/18 04:05:34;;;;;;;2.17;1.20;;;;;;;14.56;53.42;93325.31;5006039;28;20207;-74
2023/01/18 04:08:01;;;;;;;4.78;1.15;;;;;;;14.55;53.97;93307.53;5007842;28;20291;-68
2023/01/18 04:10:27;;;;;;;4.68;1.17;;;;;;;14.57;53.78;93342.28;5007733;28;20264;-68
2023/01/18 04:12:54;;;;;;;3.60;1.65;;;;;;;14.50;53.75;93301.97;5006415;28;20207;-69
2023/01/18 04:15:21;;;;;;;2.58;1.30;;;;;;;14.52;53.80;93323.09;5007151;28;20640;-68
2023/01/18 04:17:52;;;;;;;4.28;1.63;;;;;;;14.56;54.15;93304.06;5006467;28;20771;-68
2023/01/18 04:20:20;;;;;;;2.08;0.95;;;;;;;14.53;54.16;93337.50;5007457;28;20206;-69
2023/01/18 04:22:51;;;;;;;4.43;1.30;;;;;;;14.52;54.09;93318.00;5006814;28;20661;-66
2023/01/18 04:25:18;;;;;;;5.00;1.13;;;;;;;14.48;54.20;93331.94;5006133;28;20265;-72
2023/01/18 04:27:45;;;;;;;4.13;1.30;;;;;;;14.35;54.85;93315.88;5007079;28;20591;-69
2023/01/18 04:30:12;;;;;;;2.55;1.02;;;;;;;14.35;53.86;93308.22;5007297;28;20207;-67
2023/01/18 04:32:41;;;;;;;15.35;2.47;;;;;;;14.41;54.41;93323.91;4962379;28;20208;-71
2023/01/18 04:35:08;;;;;;;1.38;1.10;;;;;;;14.47;54.32;93335.41;4962993;28;20201;-72
2023/01/18 04:37:37;;;;;;;2.85;1.30;;;;;;;14.56;54.06;93304.88;4962007;28;20232;-68
2023/01/18 04:40:04;;;;;;;2.88;1.20;;;;;;;14.44;54.04;93307.53;4963630;28;20646;-69
2023/01/18 04:42:31;;;;;;;5.22;1.27;;;;;;;14.51;54.24;93316.38;4963367;28;20208;-69
2023/01/18 04:44:59;;;;;;;7.45;1.55;;;;;;;14.34;54.41;93265.72;4960984;28;20220;-67
2023/01/18 04:47:27;;;;;;;4.18;1.45;;;;;;;14.40;54.66;93286.47;4961388;28;20227;-69
2023/01/18 04:49:54;;;;;;;8.23;1.40;;;;;;;14.35;54.93;93287.78;4962192;28;21091;-70
2023/01/18 04:52:21;;;;;;;6.05;1.13;;;;;;;14.33;55.09;93266.66;4962955;28;20209;-74
2023/01/18 04:54:49;;;;;;;4.72;1.40;;;;;;;14.18;55.44;93253.28;4961037;28;20204;-73
2023/01/18 04:57:16;;;;;;;2.78;1.25;;;;;;;14.33;55.08;93298.13;4964626;28;20258;-71
2023/01/18 04:59:44;;;;;;;5.30;1.33;;;;;;;14.33;54.92;93267.47;4963269;28;20209;-69
2023/01/18 05:02:11;;;;;;;7.82;1.58;;;;;;;14.34;54.51;93258.06;4961398;28;20209;-69
2023/01/18 05:04:39;;;;;;;4.07;0.90;;;;;;;14.51;54.32;93289.06;4961177;28;20255;-71
2023/01/18 05:07:05;;;;;;;11.18;3.30;;;;;;;14.52;54.40;93262.59;4961580;28;20581;-67
2023/01/18 05:09:33;;;;;;;6.75;1.25;;;;;;;14.52;54.16;93236.22;4962350;28;20304;-69
2023/01/18 05:12:01;;;;;;;4.50;1.90;;;;;;;14.57;53.61;93270.72;4960605;28;20208;-71
2023/01/18 05:14:27;;;;;;;2.08;1.13;;;;;;;14.61;53.30;93271.25;4961986;28;20270;-70
2023/01/18 05:16:54;;;;;;;2.30;1.70;;;;;;;14.68;53.00;93262.19;4959799;28;20311;-71
2023/01/18 05:19:21;;;;;;;4.38;1.25;;;;;;;14.68;53.12;93279.28;4960414;28;20208;-71
2023/01/18 05:21:49;;;;;;;2.33;1.30;;;;;;;14.73;53.03;93266.94;4961044;28;20207;-71
2023/01/18 05:24:16;;;;;;;3.70;1.75;;;;;;;14.75;52.54;93265.91;4961492;28;20196;-69
2023/01/18 05:26:42;;;;;;;14.52;1.65;;;;;;;14.81;51.77;93303.78;4962617;28;21490;-72
2023/01/18 05:29:11;;;;;;;2.95;1.33;;;;;;;14.95;52.11;93333.38;4960547;28;20709;-70
2023/01/18 05:31:37;;;;;;;9.90;1.45;;;;;;;14.98;51.74;93238.50;4986755;28;20456;-70
2023/01/18 05:34:04;;;;;;;4.70;1.27;;;;;;;14.91;52.07;93281.66;5004009;28;20210;-68
2023/01/18 05:36:31;;;;;;;4.30;1.55;;;;;;;14.84;52.59;93287.41;5003389;28;20224;-69
2023/01/18 05:38:58;;;;;;;4.80;1.70;;;;;;;14.85;52.66;93287.25;5004610;28;21311;-74
2023/01/18 05:41:25;;;;;;;4.78;1.40;;;;;;;14.90;52.58;93297.94;5004109;28;20207;-69
2023/01/18 05:43:51;;;;;;;2.28;1.05;;;;;;;14.87;52.97;93285.38;5004698;28;20419;-74
2023/01/18 05:46:20;;;;;;;8.90;2.38;;;;;;;14.87;53.06;93300.72;5003498;28;20214;-71
2023/01/18 05:48:46;;;;;;;2.72;1.50;;;;;;;14.81;53.50;93267.19;5004780;28;20628;-67
2023/01/18 05:51:13;;;;;;;3.33;1.27;;;;;;;14.80;53.67;93337.97;5003664;28;22588;-71
2023/01/18 05:53:40;;;;;;;5.88;1.88;;;;;;;14.74;52.41;93282.19;5003002;28;20880;-68
2023/01/18 05:56:09;;;;;;;8.77;1.52;;;;;;;14.82;52.61;93273.91;5005084;28;20250;-70
2023/01/18 05:58:37;;;;;;;9.52;1.65;;;;;;;14.91;52.16;93298.75;5005005;28;20227;-71
2023/01/18 06:01:03;;;;;;;6.05;1.75;;;;;;;14.94;52.29;93299.31;5004960;28;20596;-72
2023/01/18 06:03:32;;;;;;;2.00;1.17;;;;;;;15.01;51.76;93327.00;5005867;28;20281;-70
2023/01/18 06:05:58;;;;;;;3.83;1.05;;;;;;;15.09;52.19;93301.63;5008736;28;20627;-69
2023/01/18 06:08:25;;;;;;;8.00;1.88;;;;;;;15.11;52.15;93294.63;5007925;28;22078;-71
2023/01/18 06:10:53;;;;;;;4.68;1.50;;;;;;;15.22;51.96;93292.84;5008979;28;20810;-74
2023/01/18 06:13:21;;;;;;;7.53;1.48;;;;;;;15.43;51.64;93313.34;5008892;28;21820;-71
2023/01/18 06:15:48;;;;;;;2.22;1.52;;;;;;;15.31;52.06;93347.59;5010480;28;20777;-71
2023/01/18 06:18:14;;;;;;;8.13;1.20;;;;;;;15.14;52.48;93319.97;5007496;28;20748;-70
2023/01/18 06:20:43;;;;;;;3.42;1.23;;;;;;;15.04;53.15;93321.63;5009256;28;20206;-70
2023/01/18 06:23:09;;;;;;;7.53;1.15;;;;;;;15.07;53.27;93316.28;5008083;28;20500;-72
2023/01/18 06:25:36;;;;;;;8.48;1.75;;;;;;;15.17;52.94;93315.41;5007256;28;20650;-71
2023/01/18 06:28:03;;;;;;;3.72;2.20;;;;;;;15.08;52.95;93346.06;5007537;28;20210;-71
2023/01/18 06:30:31;;;;;;;5.28;1.30;;;;;;;15.09;53.04;93343.38;5007202;28;20337;-71
2023/01/18 06:33:03;;;;;;;1.92;1.77;;;;;;;15.03;53.69;93333.63;5007092;28;20206;-68
2023/01/18 06:35:30;;;;;;;6.85;1.48;;;;;;;15.01;53.46;93339.78;5008316;28;20337;-72
2023/01/18 06:37:58;;;;;;;5.88;1.27;;;;;;;15.61;52.11;93329.00;5005710;28;20234;-70
2023/01/18 06:40:25;;;;;;;5.43;1.73;;;;;;;16.26;50.42;93338.19;5008911;28;20319;-74
2023/01/18 06:42:52;;;;;;;2.80;1.05;;;;;;;16.09;50.58;93323.38;5007634;28;20282;-69
2023/01/18 06:45:20;;;;;;;6.93;1.40;;;;;;;15.87;51.39;93319.22;5007817;28;20207;-69
2023/01/18 06:47:47;;;;;;;4.10;1.70;;;;;;;15.83;51.61;93312.75;5006024;28;20206;-74
2023/01/18 06:50:15;;;;;;;8.00;1.60;;;;;;;15.83;51.60;93307.63;5005839;28;20207;-72
2023/01/18 06:52:42;;;;;;;3.25;1.13;;;;;;;15.85;51.41;93321.06;5008637;28;20327;-71
2023/01/18 06:55:12;;;;;;;5.40;1.63;;;;;;;15.93;51.16;93287.97;5005992;28;20296;-74
2023/01/18 06:57:39;;;;;;;3.50;1.50;;;;;;;16.11;50.77;93296.69;5008063;28;20238;-69
2023/01/18 07:00:09;;;;;;;6.55;1.75;;;;;;;16.75;49.06;93342.63;5006561;28;20207;-72
2023/01/18 07:02:36;;;;;;;28.50;2.40;;;;;;;17.27;48.08;93250.88;5007832;28;20207;-69
2023/01/18 07:05:03;;;;;;;4.63;1.73;;;;;;;17.32;48.43;93295.69;5007382;28;20211;-71
2023/01/18 07:07:30;;;;;;;22.00;1.95;;;;;;;17.12;48.18;93285.56;5009418;28;20633;-69
2023/01/18 07:09:57;;;;;;;7.13;1.50;;;;;;;17.52;47.84;93293.97;5006598;28;20207;-73
2023/01/18 07:12:26;;;;;;;1.70;1.23;;;;;;;18.04;46.63;93307.31;5007040;28;20207;-68
2023/01/18 07:14:52;;;;;;;4.03;1.83;;;;;;;18.67;44.56;93268.94;5006030;28;20215;-70
2023/01/18 07:17:19;;;;;;;8.27;1.58;;;;;;;19.19;43.14;93305.22;5006727;28;20226;-70
2023/01/18 07:19:46;;;;;;;7.65;1.67;;;;;;;19.64;42.04;93290.53;5007960;28;20215;-71
2023/01/18 07:22:13;;;;;;;15.05;1.77;;;;;;;19.59;41.69;93266.97;5009089;28;20215;-69
2023/01/18 07:24:40;;;;;;;7.68;2.28;;;;;;;19.96;41.21;93304.63;5006424;28;20630;-74
2023/01/18 07:27:06;;;;;;;7.07;1.58;;;;;;;20.15;41.02;93273.50;5007293;28;20210;-69
2023/01/18 07:29:35;;;;;;;3.47;1.60;;;;;;;19.70;41.73;93299.44;5008274;28;20218;-72
2023/01/18 07:32:01;;;;;;;8.00;1.50;;;;;;;19.41;42.08;93281.63;5007808;28;20284;-68
2023/01/18 07:34:28;;;;;;;4.97;1.88;;;;;;;19.50;42.29;93293.66;5006164;28;20854;-70
2023/01/18 07:36:55;;;;;;;4.63;1.30;;;;;;;19.87;41.33;93318.41;5006908;28;20234;-72
2023/01/18 07:39:22;;;;;;;6.97;1.42;;;;;;;20.46;39.83;93191.31;5006897;28;20231;-74
2023/01/18 07:41:49;;;;;;;10.70;3.55;;;;;;;20.09;40.71;93270.72;5004962;28;20211;-71
2023/01/18 07:44:15;;;;;;;3.40;1.52;;;;;;;19.14;42.60;93315.94;5005181;28;20668;-70
2023/01/18 07:46:44;;;;;;;6.55;2.88;;;;;;;19.22;42.94;93364.97;5005934;28;20276;-70
2023/01/18 07:49:10;;;;;;;2.97;1.48;;;;;;;18.81;42.79;93362.84;5004091;28;20224;-72
2023/01/18 07:51:37;;;;;;;2.13;1.33;;;;;;;18.70;43.99;93366.44;5006115;28;20602;-74
2023/01/18 07:54:04;;;;;;;11.38;1.77;;;;;;;18.56;43.36;93364.31;5005330;28;20250;-70
2023/01/18 07:56:31;;;;;;;7.63;2.20;;;;;;;18.76;43.75;93335.00;5007140;28;20202;-70
2023/01/18 07:58:57;;;;;;;7.32;1.88;;;;;;;18.55;43.86;93357.53;5005869;28;20653;-71
2023/01/18 08:01:25;;;;;;;5.55;1.33;;;;;;;18.34;43.96;93329.41;5007224;28;20230;-76
2023/01/18 08:03:53;;;;;;;5.35;1.60;;;;;;;18.43;44.15;93407.50;5004993;28;20211;-72
2023/01/18 08:06:23;;;;;;;3.00;1.27;;;;;;;18.67;43.83;93406.13;5005264;28;20194;-71
2023/01/18 08:08:51;;;;;;;5.60;1.58;;;;;;;18.62;44.06;93404.91;5006017;28;20206;-74
2023/01/18 08:11:18;;;;;;;3.17;1.42;;;;;;;18.77;43.71;93407.88;5005090;28;20217;-73
2023/01/18 08:13:45;;;;;;;7.32;1.63;;;;;;;18.93;43.34;93439.75;5005480;28;20218;-74
2023/01/18 08:16:12;;;;;;;9.00;1.88;;;;;;;19.18;42.94;93416.91;5006750;28;20211;-74
2023/01/18 08:18:40;;;;;;;4.22;1.48;;;;;;;19.67;42.12;93403.63;5006872;28;20310;-72
2023/01/18 08:21:11;;;;;;;8.35;1.35;;;;;;;19.79;41.86;93408.59;5005754;28;20286;-71
2023/01/18 08:23:38;;;;;;;4.55;1.55;;;;;;;20.14;40.97;93430.97;5003506;28;20199;-77
2023/01/18 08:26:06;;;;;;;4.60;1.52;;;;;;;20.49;40.28;93404.34;5006855;28;20233;-71
2023/01/18 08:28:34;;;;;;;7.47;1.55;;;;;;;20.85;39.66;93426.50;5007688;28;20211;-73
2023/01/18 08:31:10;;;;;;;5.43;1.77;;;;;;;20.77;39.36;93387.75;5007944;28;20304;-75
2023/01/18 08:33:44;;;;;;;9.00;1.50;;;;;;;20.68;40.05;93458.34;5004107;28;20229;-73
2023/01/18 08:36:13;;;;;;;6.53;1.77;;;;;;;20.03;40.52;93450.88;5005826;28;20708;-70
2023/01/18 08:38:40;;;;;;;11.35;1.90;;;;;;;20.01;41.15;93472.59;5004945;28;20788;-72
2023/01/18 08:41:07;;;;;;;11.30;1.88;;;;;;;20.00;41.52;93456.31;5004714;28;20215;-72
2023/01/18 08:43:34;;;;;;;6.97;1.60;;;;;;;19.65;42.11;93497.50;5006323;28;20203;-71
2023/01/18 08:46:00;;;;;;;4.68;1.77;;;;;;;19.18;43.26;93471.78;5005647;28;20212;-70
2023/01/18 08:48:27;;;;;;;5.85;2.35;;;;;;;19.26;43.13;93453.06;5006098;28;20214;-71
2023/01/18 08:50:54;;;;;;;7.63;2.35;;;;;;;18.90;43.61;93465.78;5000265;28;20227;-73
2023/01/18 08:53:22;;;;;;;5.13;1.67;;;;;;;19.22;43.90;93490.34;5004853;28;20734;-72
2023/01/18 08:55:49;;;;;;;4.50;1.50;;;;;;;19.63;43.11;93499.41;5003061;28;20203;-72
2023/01/18 08:58:16;;;;;;;5.75;1.40;;;;;;;19.33;43.01;93490.16;5003775;28;20229;-70
2023/01/18 09:00:44;;;;;;;6.85;1.60;;;;;;;18.79;44.37;93498.59;5007196;28;20444;-74
2023/01/18 09:03:11;;;;;;;4.45;1.98;;;;;;;19.22;43.62;93500.66;5003171;28;20222;-75
2023/01/18 09:05:39;;;;;;;6.07;1.75;;;;;;;19.37;43.17;93506.94;5002790;28;20217;-73
2023/01/18 09:08:06;;;;;;;5.28;1.70;;;;;;;19.41;43.37;93510.06;5004267;28;20540;-74
2023/01/18 09:10:36;;;;;;;4.53;1.40;;;;;;;19.34;43.21;93522.69;5003092;28;20203;-73
2023/01/18 09:13:03;;;;;;;5.43;2.17;;;;;;;19.48;43.28;93532.53;5005638;28;20203;-71
2023/01/18 09:15:29;;;;;;;3.70;1.85;;;;;;;19.67;43.07;93536.81;5001439;28;20217;-72
2023/01/18 09:17:57;;;;;;;6.70;1.55;;;;;;;19.46;43.25;93529.28;5001712;28;20563;-74
2023/01/18 09:20:24;;;;;;;5.97;2.13;;;;;;;19.15;44.01;93540.78;5003878;28;20199;-73
2023/01/18 09:22:51;;;;;;;3.13;1.73;;;;;;;19.25;44.15;93537.25;5004894;28;20728;-76
2023/01/18 09:25:19;;;;;;;7.07;2.13;;;;;;;19.27;43.76;93547.41;5001803;28;20202;-73
2023/01/18 09:27:47;;;;;;;2.03;1.38;;;;;;;19.41;44.14;93582.19;5003199;28;20222;-72
2023/01/18 09:30:15;;;;;;;13.18;2.42;;;;;;;19.24;44.11;93498.75;5005182;28;20215;-70
2023/01/18 09:32:42;;;;;;;5.57;2.08;;;;;;;18.93;44.53;93532.44;5003436;28;20205;-73
2023/01/18 09:35:10;;;;;;;7.82;1.67;;;;;;;18.64;45.36;93535.03;5002721;28;20281;-74
2023/01/18 09:37:36;;;;;;;4.50;2.38;;;;;;;18.59;45.53;93510.63;5003004;28;20207;-83
2023/01/18 09:40:04;;;;;;;2.58;1.48;;;;;;;18.53;45.72;93539.50;5002570;28;20237;-77
2023/01/18 09:42:35;;;;;;;3.42;1.70;;;;;;;18.70;45.90;93541.41;5003982;28;20265;-74
2023/01/18 09:45:04;;;;;;;6.05;1.88;;;;;;;18.87;45.52;93521.88;4999741;28;20208;-71
2023/01/18 09:47:35;;;;;;;3.90;1.80;;;;;;;18.68;45.86;93533.00;5002383;28;20202;-80
2023/01/18 09:50:13;;;;;;;8.65;1.95;;;;;;;18.58;45.93;93527.00;5003095;28;20219;-75
2023/01/18 09:52:51;;;;;;;5.43;1.63;;;;;;;18.60;45.79;93520.00;5003200;28;20206;-76
2023/01/18 09:55:24;;;;;;;5.95;1.65;;;;;;;18.66;45.91;93534.91;5001752;28;20685;-73
2023/01/18 09:58:06;;;;;;;3.95;2.20;;;;;;;18.88;45.37;93526.88;4999906;28;20207;-77
2023/01/18 10:00:40;;;;;;;6.70;2.13;;;;;;;18.84;44.76;93529.84;5001199;28;20206;-76
2023/01/18 10:03:12;;;;;;;12.20;2.30;;;;;;;18.88;45.17;93524.31;5003787;28;20869;-73
2023/01/18 10:05:47;;;;;;;6.53;2.20;;;;;;;19.11;45.19;93516.25;4997442;28;20657;-74
2023/01/18 10:08:16;;;;;;;4.90;1.85;;;;;;;18.94;44.76;93513.47;5003927;28;20633;-75
2023/01/18 10:10:50;;;;;;;5.53;1.45;;;;;;;18.64;44.75;93521.34;5005843;28;20238;-77
2023/01/18 10:13:36;;;;;;;8.63;2.05;;;;;;;18.84;45.24;93522.94;5004711;28;20609;-77
2023/01/18 10:16:13;;;;;;;7.90;2.25;;;;;;;19.11;44.44;93523.97;5002537;28;20245;-76
2023/01/18 10:18:44;;;;;;;18.13;2.75;;;;;;;19.25;44.28;93488.31;5004635;28;20566;-67
2023/01/18 10:21:19;;;;;;;5.72;2.08;;;;;;;19.21;43.84;93527.34;5006271;28;20203;-64
2023/01/18 10:23:55;;;;;;;8.13;1.80;;;;;;;19.02;43.68;93490.41;5003146;28;20218;-71
2023/01/18 10:26:29;;;;;;;9.32;2.28;;;;;;;18.84;43.98;93558.97;5004895;28;20210;-70
2023/01/18 10:29:02;;;;;;;8.50;1.77;;;;;;;18.68;44.01;93527.88;5004382;28;20196;-72
2023/01/18 10:31:43;;;;;;;4.30;1.83;;;;;;;18.61;44.59;93519.88;5005713;28;20229;-69
2023/01/18 10:34:17;;;;;;;8.57;2.20;;;;;;;18.72;44.62;93534.38;5004589;28;20237;-72
2023/01/18 10:36:47;;;;;;;8.38;2.28;;;;;;;18.73;43.95;93536.00;5004638;28;20294;-71
2023/01/18 10:39:29;;;;;;;6.63;1.90;;;;;;;18.75;44.64;93528.94;5004665;28;20284;-72
2023/01/18 10:42:00;;;;;;;5.40;1.77;;;;;;;18.82;44.30;93565.22;5004044;28;20214;-71
2023/01/18 10:44:28;;;;;;;6.55;1.92;;;;;;;18.66;44.36;93581.22;5003493;28;21988;-69
2023/01/18 10:46:57;;;;;;;6.28;1.70;;;;;;;18.57;44.28;93577.66;5004413;28;20210;-71
2023/01/18 10:49:43;;;;;;;4.72;1.67;;;;;;;18.47;44.71;93587.16;5007336;28;20241;-69
2023/01/18 10:52:24;;;;;;;5.75;2.25;;;;;;;18.47;44.49;93582.00;5005475;28;20230;-73
2023/01/18 10:54:54;;;;;;;4.88;2.50;;;;;;;18.58;44.72;93568.19;5008608;28;20356;-68
2023/01/18 10:57:26;;;;;;;7.00;2.25;;;;;;;18.50;44.74;93588.63;5007044;28;20578;-70
2023/01/18 10:59:53;;;;;;;7.15;1.50;;;;;;;18.23;45.20;93579.81;5009030;28;20231;-69
2023/01/18 11:02:26;;;;;;;6.65;1.75;;;;;;;18.31;45.21;93577.38;5008005;28;20302;-69
2023/01/18 11:04:58;;;;;;;7.95;2.17;;;;;;;18.46;44.93;93575.22;5007117;28;20195;-68
2023/01/18 11:07:26;;;;;;;5.80;1.92;;;;;;;18.50;44.58;93574.03;5007167;28;20297;-70
2023/01/18 11:09:57;;;;;;;3.20;1.92;;;;;;;18.53;44.72;93544.66;5008718;28;20220;-72
2023/01/18 11:12:35;;;;;;;3.45;1.52;;;;;;;18.41;44.86;93597.16;5007618;28;20211;-70
2023/01/18 11:15:24;;;;;;;5.38;1.77;;;;;;;18.31;45.65;93582.50;5006712;28;20209;-70
2023/01/18 11:18:19;;;;;;;5.18;2.20;;;;;;;18.53;44.97;93580.66;5006645;28;20207;-70
2023/01/18 11:20:48;;;;;;;2.90;1.80;;;;;;;18.46;44.78;93554.66;4982910;28;20230;-70
2023/01/18 11:23:25;;;;;;;3.95;1.42;;;;;;;18.31;44.26;93574.78;5006853;28;20221;-71
2023/01/18 11:25:59;;;;;;;16.60;3.10;;;;;;;18.20;44.70;93549.22;5007839;28;20285;-69
2023/01/18 11:28:30;;;;;;;6.05;1.58;;;;;;;18.12;45.27;93572.19;5006643;28;20228;-71
2023/01/18 11:31:00;;;;;;;4.78;1.60;;;;;;;18.20;45.55;93587.78;5008795;28;20235;-70
2023/01/18 11:33:29;;;;;;;7.43;1.85;;;;;;;18.12;44.81;93576.53;5008006;28;20207;-69
2023/01/18 11:35:59;;;;;;;4.50;1.80;;;;;;;18.06;45.00;93577.09;5008192;28;20207;-68
2023/01/18 11:38:30;;;;;;;4.05;1.40;;;;;;;18.10;45.20;93586.94;5008192;28;20893;-73
2023/01/18 11:41:14;;;;;;;7.20;1.85;;;;;;;18.14;45.10;93575.44;5007855;28;20211;-69
2023/01/18 11:43:47;;;;;;;5.45;1.98;;;;;;;18.16;45.02;93588.19;5007899;28;20213;-69
2023/01/18 11:46:28;;;;;;;7.95;1.73;;;;;;;18.20;44.71;93605.78;5006910;28;20804;-72
2023/01/18 11:49:03;;;;;;;6.07;1.80;;;;;;;18.20;44.73;93599.81;5007520;28;20195;-70
2023/01/18 11:51:34;;;;;;;9.18;1.98;;;;;;;18.29;44.69;93610.16;5007143;28;20210;-72
2023/01/18 11:54:10;;;;;;;9.32;2.13;;;;;;;18.40;44.58;93611.75;5008978;28;20887;-69
2023/01/18 11:56:41;;;;;;;5.55;1.95;;;;;;;18.45;44.43;93616.50;5007166;28;20624;-68
2023/01/18 11:59:14;;;;;;;5.82;1.85;;;;;;;18.54;43.96;93613.16;5007121;28;20238;-71
2023/01/18 12:01:53;;;;;;;5.47;2.42;;;;;;;18.58;43.95;93619.63;5005938;28;20217;-74
2023/01/18 12:04:36;;;;;;;3.13;1.38;;;;;;;18.76;43.14;93617.25;5006964;28;20231;-72
2023/01/18 12:07:18;;;;;;;6.78;1.80;;;;;;;18.54;43.31;93618.31;5008336;28;20214;-71
2023/01/18 12:09:51;;;;;;;9.05;1.65;;;;;;;18.67;43.38;93626.59;5006971;28;20898;-68
2023/01/18 12:12:35;;;;;;;9.57;1.95;;;;;;;18.87;42.81;93625.63;5007779;28;20322;-71
2023/01/18 12:15:22;;;;;;;8.73;2.03;;;;;;;19.01;42.48;93603.81;5007537;28;20237;-70
2023/01/18 12:18:05;;;;;;;9.35;2.15;;;;;;;18.98;42.11;93627.28;5006334;28;20191;-70
2023/01/18 12:20:43;;;;;;;7.45;2.17;;;;;;;18.64;42.99;93650.00;5007575;28;20226;-71
2023/01/18 12:23:31;;;;;;;3.42;1.50;;;;;;;18.64;43.05;93640.53;5007310;28;20213;-70
2023/01/18 12:26:19;;;;;;;6.45;1.90;;;;;;;18.30;43.17;93647.78;5005338;28;20332;-70